< < Back
Terminal Aerodrome Forecast


Current Version              Previous Versions:   1  2  3  4  5  6  7  8  9  

Terminal Aerodrome Forecast

117
FTUS42 KMLB 281508 AAA
TAFMCO
TAF AMD
KMCO 281508Z 2815/2912 07011KT P6SM VCSH SCT025 SCT060 SCT250
     FM281700 08012G18KT P6SM VCTS SCT040CB SCT070 SCT250
     FM290000 06007KT P6SM FEW030 SCT100=

Latest METAR

310
SAUS70 KWBC 290300 RRG
MTRMCO
METAR KMCO 290253Z 07006KT 10SM FEW250 26/24 A2999 RMK AO2 SLP152
T02610239 51013


USA.gov is the U.S. government's official web portal to all federal, state and local government web resources and services.